createdAt,value
2019-03-13T00:00:19.522Z,4.53
2019-03-13T00:01:19.500Z,4.51
2019-03-13T00:02:19.505Z,4.49
2019-03-13T00:03:19.482Z,4.53
2019-03-13T00:04:19.468Z,4.54
2019-03-13T00:05:19.491Z,4.56
2019-03-13T00:06:19.459Z,4.57
2019-03-13T00:07:19.432Z,4.54
2019-03-13T00:08:19.473Z,4.49
2019-03-13T00:09:19.421Z,4.43
2019-03-13T00:10:19.456Z,4.42
2019-03-13T00:11:19.525Z,4.48
2019-03-13T00:12:19.392Z,4.46
2019-03-13T00:13:19.372Z,4.31
2019-03-13T00:14:19.383Z,4.38
2019-03-13T00:15:19.350Z,4.38
2019-03-13T00:16:19.340Z,4.36
2019-03-13T00:17:19.453Z,4.41
2019-03-13T00:18:19.320Z,4.30
2019-03-13T00:19:19.305Z,4.42
2019-03-13T00:20:19.329Z,4.43
2019-03-13T00:21:19.282Z,4.43
2019-03-13T00:22:19.276Z,4.49
2019-03-13T00:23:19.320Z,4.53
2019-03-13T00:24:19.256Z,4.53
2019-03-13T00:25:19.261Z,4.53
2019-03-13T00:26:19.240Z,4.48
2019-03-13T00:27:19.228Z,4.43
2019-03-13T00:28:19.280Z,4.43
2019-03-13T00:29:19.325Z,4.35
2019-03-13T00:30:19.220Z,4.48
2019-03-13T00:31:19.188Z,4.46
2019-03-13T00:32:19.180Z,4.46
2019-03-13T00:33:19.154Z,4.48
2019-03-13T00:34:19.146Z,4.49
2019-03-13T00:35:19.159Z,4.48
2019-03-13T00:36:19.145Z,4.38
2019-03-13T00:37:19.112Z,4.42
2019-03-13T00:38:19.105Z,4.39
2019-03-13T00:39:19.116Z,4.41
2019-03-13T00:40:19.082Z,4.43
2019-03-13T00:41:19.194Z,4.53
2019-03-13T00:42:19.056Z,4.49
2019-03-13T00:43:19.054Z,4.51
2019-03-13T00:44:19.044Z,4.56
2019-03-13T00:45:19.032Z,4.63
2019-03-13T00:46:19.024Z,4.59
2019-03-13T00:47:19.158Z,4.61
2019-03-13T00:48:18.988Z,4.69
2019-03-13T00:49:18.984Z,4.66
2019-03-13T00:50:18.974Z,4.74
2019-03-13T00:51:18.969Z,4.75
2019-03-13T00:52:18.945Z,4.79
2019-03-13T00:53:19.053Z,4.85
2019-03-13T00:54:18.929Z,4.88
2019-03-13T00:55:18.923Z,4.88
2019-03-13T00:56:18.910Z,4.85
2019-03-13T00:57:18.897Z,4.79
2019-03-13T00:58:19.148Z,4.78
2019-03-13T00:59:19.002Z,4.75
2019-03-13T01:00:18.871Z,4.82
2019-03-13T01:01:18.866Z,4.77
2019-03-13T01:02:18.916Z,4.83
2019-03-13T01:03:18.837Z,4.83
2019-03-13T01:04:18.831Z,4.75
2019-03-13T01:05:18.864Z,4.85
2019-03-13T01:06:18.801Z,4.82
2019-03-13T01:07:18.790Z,4.75
2019-03-13T01:08:18.837Z,4.78
2019-03-13T01:09:18.769Z,4.75
2019-03-13T01:10:18.764Z,4.71
2019-03-13T01:11:18.866Z,4.78
2019-03-13T01:12:18.737Z,4.69
2019-03-13T01:13:18.778Z,4.71
2019-03-13T01:14:18.756Z,4.72
2019-03-13T01:15:18.711Z,4.67
2019-03-13T01:16:18.711Z,4.66
2019-03-13T01:17:18.730Z,4.60
2019-03-13T01:18:18.674Z,4.59
2019-03-13T01:19:18.658Z,4.67
2019-03-13T01:20:18.644Z,4.72
2019-03-13T01:21:18.633Z,4.83
2019-03-13T01:22:18.629Z,4.91
2019-03-13T01:23:18.856Z,4.83
2019-03-13T01:24:18.605Z,4.86
2019-03-13T01:25:18.611Z,4.88
2019-03-13T01:26:18.618Z,4.83
2019-03-13T01:27:18.582Z,4.88
2019-03-13T01:28:18.595Z,4.83
2019-03-13T01:29:18.596Z,4.86
2019-03-13T01:30:18.619Z,4.89
2019-03-13T01:31:18.547Z,4.79
2019-03-13T01:32:18.525Z,4.85
2019-03-13T01:33:18.505Z,4.86
2019-03-13T01:34:18.505Z,4.86
2019-03-13T01:35:18.629Z,4.83
2019-03-13T01:36:18.506Z,4.72
2019-03-13T01:37:18.493Z,4.72
2019-03-13T01:38:18.457Z,4.82
2019-03-13T01:39:18.485Z,4.78
2019-03-13T01:40:18.445Z,4.79
2019-03-13T01:41:18.461Z,4.64
2019-03-13T01:42:18.424Z,4.66
2019-03-13T01:43:18.419Z,4.72
2019-03-13T01:44:18.391Z,4.72
2019-03-13T01:45:18.383Z,4.69
2019-03-13T01:46:18.375Z,4.67
2019-03-13T01:47:18.474Z,4.78
2019-03-13T01:48:18.355Z,4.67
2019-03-13T01:49:18.334Z,4.66
2019-03-13T01:50:18.330Z,4.64
2019-03-13T01:51:18.315Z,4.63
2019-03-13T01:52:18.296Z,4.66
2019-03-13T01:53:18.443Z,4.63
2019-03-13T01:54:18.276Z,4.63
2019-03-13T01:55:18.263Z,4.63
2019-03-13T01:56:18.251Z,4.64
2019-03-13T01:57:18.240Z,4.66
2019-03-13T01:58:18.237Z,4.64
2019-03-13T01:59:18.348Z,4.63
2019-03-13T02:00:18.224Z,4.64
2019-03-13T02:01:18.196Z,4.57
2019-03-13T02:02:18.189Z,4.56
2019-03-13T02:03:18.176Z,4.57
2019-03-13T02:04:18.163Z,4.60
2019-03-13T02:05:18.196Z,4.63
2019-03-13T02:06:18.148Z,4.57
2019-03-13T02:07:18.136Z,4.64
2019-03-13T02:08:18.138Z,4.69
2019-03-13T02:09:18.111Z,4.78
2019-03-13T02:10:18.098Z,4.88
2019-03-13T02:11:18.214Z,4.89
2019-03-13T02:12:18.079Z,4.86
2019-03-13T02:13:18.081Z,4.86
2019-03-13T02:14:18.056Z,4.75
2019-03-13T02:15:18.045Z,4.72
2019-03-13T02:16:18.034Z,4.67
2019-03-13T02:17:18.056Z,4.71
2019-03-13T02:18:18.035Z,4.64
2019-03-13T02:19:18.022Z,4.61
2019-03-13T02:20:17.991Z,4.63
2019-03-13T02:21:17.979Z,4.59
2019-03-13T02:22:17.967Z,4.71
2019-03-13T02:23:18.086Z,4.67
2019-03-13T02:24:17.950Z,4.71
2019-03-13T02:25:17.945Z,4.79
2019-03-13T02:26:17.939Z,4.79
2019-03-13T02:27:17.913Z,4.77
2019-03-13T02:28:17.901Z,4.77
2019-03-13T02:29:17.927Z,4.77
2019-03-13T02:30:17.884Z,4.74
2019-03-13T02:31:17.871Z,4.60
2019-03-13T02:32:17.874Z,4.60
2019-03-13T02:33:17.847Z,4.49
2019-03-13T02:34:17.837Z,4.48
2019-03-13T02:35:17.954Z,4.46
2019-03-13T02:36:17.814Z,4.46
2019-03-13T02:37:17.818Z,4.46
2019-03-13T02:38:17.800Z,4.45
2019-03-13T02:39:17.785Z,4.59
2019-03-13T02:40:17.773Z,4.63
2019-03-13T02:41:17.797Z,4.61
2019-03-13T02:42:17.760Z,4.66
2019-03-13T02:43:17.741Z,4.64
2019-03-13T02:44:17.747Z,4.77
2019-03-13T02:45:17.715Z,4.69
2019-03-13T02:46:17.711Z,4.79
2019-03-13T02:47:19.216Z,4.77
2019-03-13T02:48:17.690Z,4.74
2019-03-13T02:49:17.674Z,4.77
2019-03-13T02:50:17.673Z,4.82
2019-03-13T02:51:17.656Z,4.83
2019-03-13T02:52:17.645Z,4.85
2019-03-13T02:53:17.754Z,4.85
2019-03-13T02:54:17.619Z,4.86
2019-03-13T02:55:17.608Z,4.82
2019-03-13T02:56:17.607Z,4.85
2019-03-13T02:57:17.595Z,4.94
2019-03-13T02:58:17.586Z,4.97
2019-03-13T02:59:17.613Z,5.03
2019-03-13T03:00:17.636Z,5.00
2019-03-13T03:01:17.547Z,4.96
2019-03-13T03:02:17.540Z,4.94
2019-03-13T03:03:17.532Z,4.85
2019-03-13T03:04:17.510Z,4.86
2019-03-13T03:05:17.553Z,4.85
2019-03-13T03:06:17.491Z,4.75
2019-03-13T03:07:17.478Z,4.74
2019-03-13T03:08:17.479Z,4.74
2019-03-13T03:09:17.628Z,4.61
2019-03-13T03:10:17.450Z,4.66
2019-03-13T03:11:17.488Z,4.66
2019-03-13T03:12:17.432Z,4.63
2019-03-13T03:13:17.414Z,4.72
2019-03-13T03:14:17.404Z,4.75
2019-03-13T03:15:17.394Z,4.82
2019-03-13T03:16:17.387Z,4.89
2019-03-13T03:17:17.498Z,4.85
2019-03-13T03:18:17.371Z,4.78
2019-03-13T03:19:17.370Z,4.83
2019-03-13T03:20:17.350Z,4.85
2019-03-13T03:21:17.326Z,4.82
2019-03-13T03:22:17.314Z,4.86
2019-03-13T03:23:17.433Z,4.91
2019-03-13T03:24:17.304Z,4.94
2019-03-13T03:25:17.339Z,4.96
2019-03-13T03:26:17.289Z,4.88
2019-03-13T03:27:17.261Z,4.83
2019-03-13T03:28:17.255Z,4.86
2019-03-13T03:29:17.286Z,4.86
2019-03-13T03:30:17.238Z,4.82
2019-03-13T03:31:17.252Z,4.78
2019-03-13T03:32:17.219Z,4.85
2019-03-13T03:33:17.210Z,4.82
2019-03-13T03:34:17.196Z,4.79
2019-03-13T03:35:17.342Z,4.82
2019-03-13T03:36:17.170Z,4.78
2019-03-13T03:37:17.173Z,4.85
2019-03-13T03:38:17.156Z,4.98
2019-03-13T03:39:17.135Z,4.96
2019-03-13T03:40:21.730Z,4.88
2019-03-13T03:41:18.154Z,4.82
2019-03-13T03:42:17.116Z,4.85
2019-03-13T03:43:17.126Z,4.88
2019-03-13T03:44:17.145Z,4.85
2019-03-13T03:45:17.069Z,4.88
2019-03-13T03:46:17.057Z,4.82
2019-03-13T03:47:17.174Z,4.86
2019-03-13T03:48:17.047Z,4.85
2019-03-13T03:49:17.023Z,4.85
2019-03-13T03:50:17.101Z,4.85
2019-03-13T03:51:17.002Z,4.85
2019-03-13T03:52:17.000Z,4.78
2019-03-13T03:53:17.022Z,4.83
2019-03-13T03:54:16.987Z,4.89
2019-03-13T03:55:16.980Z,4.83
2019-03-13T03:56:16.948Z,4.75
2019-03-13T03:57:16.947Z,4.66
2019-03-13T03:58:16.930Z,4.67
2019-03-13T03:59:17.055Z,4.64
2019-03-13T04:00:16.929Z,4.67
2019-03-13T04:01:16.894Z,4.64
2019-03-13T04:02:16.885Z,4.75
2019-03-13T04:03:16.871Z,4.66
2019-03-13T04:04:16.862Z,4.74
2019-03-13T04:05:16.958Z,4.74
2019-03-13T04:06:16.864Z,4.75
2019-03-13T04:07:16.829Z,4.57
2019-03-13T04:08:16.818Z,4.63
2019-03-13T04:09:16.807Z,4.66
2019-03-13T04:10:16.810Z,4.57
2019-03-13T04:11:16.914Z,4.56
2019-03-13T04:12:16.786Z,4.60
2019-03-13T04:13:16.769Z,4.66
2019-03-13T04:14:16.767Z,4.60
2019-03-13T04:15:16.750Z,4.63
2019-03-13T04:16:16.750Z,4.64
2019-03-13T04:17:16.766Z,4.72
2019-03-13T04:18:16.713Z,4.79
2019-03-13T04:19:16.802Z,4.74
2019-03-13T04:20:16.696Z,4.75
2019-03-13T04:21:16.677Z,4.83
2019-03-13T04:22:16.673Z,4.79
2019-03-13T04:23:16.829Z,4.85
2019-03-13T04:24:16.648Z,4.79
2019-03-13T04:25:16.632Z,4.74
2019-03-13T04:26:16.626Z,4.78
2019-03-13T04:27:16.610Z,4.82
2019-03-13T04:28:16.613Z,4.89
2019-03-13T04:29:16.843Z,4.85
2019-03-13T04:30:16.585Z,4.85
2019-03-13T04:31:16.574Z,4.79
2019-03-13T04:32:16.558Z,4.72
2019-03-13T04:33:16.546Z,4.63
2019-03-13T04:34:16.544Z,4.61
2019-03-13T04:35:16.564Z,4.79
2019-03-13T04:36:16.522Z,4.63
2019-03-13T04:37:16.502Z,4.75
2019-03-13T04:38:16.493Z,4.64
2019-03-13T04:39:16.486Z,4.77
2019-03-13T04:40:16.487Z,4.61
2019-03-13T04:41:16.587Z,4.75
2019-03-13T04:42:16.453Z,4.75
2019-03-13T04:43:16.436Z,4.85
2019-03-13T04:44:16.426Z,4.72
2019-03-13T04:45:16.418Z,4.79
2019-03-13T04:46:16.420Z,4.91
2019-03-13T04:47:16.442Z,4.97
2019-03-13T04:48:16.387Z,4.93
2019-03-13T04:49:16.375Z,4.89
2019-03-13T04:50:16.361Z,4.85
2019-03-13T04:51:16.350Z,4.79
2019-03-13T04:52:16.363Z,4.78
2019-03-13T04:53:16.462Z,4.79
2019-03-13T04:54:16.321Z,4.82
2019-03-13T04:55:16.312Z,4.82
2019-03-13T04:56:16.314Z,4.78
2019-03-13T04:57:16.288Z,4.75
2019-03-13T04:58:16.284Z,4.82
2019-03-13T04:59:16.300Z,4.89
2019-03-13T05:00:16.256Z,4.97
2019-03-13T05:01:16.246Z,4.96
2019-03-13T05:02:16.237Z,4.93
2019-03-13T05:03:16.230Z,4.86
2019-03-13T05:04:16.228Z,4.86
2019-03-13T05:05:16.236Z,4.79
2019-03-13T05:06:16.190Z,4.85
2019-03-13T05:07:16.184Z,4.72
2019-03-13T05:08:16.178Z,4.72
2019-03-13T05:09:16.157Z,4.74
2019-03-13T05:10:16.183Z,4.60
2019-03-13T05:11:16.177Z,4.64
2019-03-13T05:12:16.123Z,4.69
2019-03-13T05:13:16.113Z,4.74
2019-03-13T05:14:16.106Z,4.77
2019-03-13T05:15:16.094Z,4.88
2019-03-13T05:16:16.087Z,4.86
2019-03-13T05:17:16.165Z,4.82
2019-03-13T05:18:16.059Z,4.97
2019-03-13T05:19:16.050Z,4.94
2019-03-13T05:20:16.038Z,5.04
2019-03-13T05:21:16.025Z,4.94
2019-03-13T05:22:16.025Z,5.00
2019-03-13T05:23:16.134Z,4.93
2019-03-13T05:24:16.002Z,5.06
2019-03-13T05:25:19.056Z,4.91
2019-03-13T05:26:15.997Z,5.01
2019-03-13T05:27:15.965Z,5.00
2019-03-13T05:28:15.970Z,5.00
2019-03-13T05:29:15.981Z,4.96
2019-03-13T05:30:15.945Z,4.83
2019-03-13T05:31:15.929Z,4.88
2019-03-13T05:32:15.920Z,4.94
2019-03-13T05:33:15.904Z,4.96
2019-03-13T05:34:15.896Z,4.93
2019-03-13T05:35:15.998Z,5.00
2019-03-13T05:36:16.986Z,4.94
2019-03-13T05:37:15.874Z,4.96
2019-03-13T05:38:15.856Z,4.89
2019-03-13T05:39:15.837Z,4.98
2019-03-13T05:40:15.835Z,4.96
2019-03-13T05:41:15.860Z,4.88
2019-03-13T05:42:15.808Z,4.93
2019-03-13T05:43:15.796Z,4.98
2019-03-13T05:44:15.804Z,4.91
2019-03-13T05:45:15.778Z,5.00
2019-03-13T05:46:15.785Z,4.97
2019-03-13T05:47:15.800Z,4.88
2019-03-13T05:48:15.744Z,4.93
2019-03-13T05:49:15.747Z,5.03
2019-03-13T05:50:15.722Z,5.01
2019-03-13T05:51:15.723Z,5.04
2019-03-13T05:52:15.692Z,5.04
2019-03-13T05:53:15.721Z,5.22
2019-03-13T05:54:15.670Z,5.25
2019-03-13T05:55:15.659Z,5.29
2019-03-13T05:56:15.653Z,5.21
2019-03-13T05:57:15.666Z,5.24
2019-03-13T05:58:15.633Z,5.27
2019-03-13T05:59:15.653Z,5.27
2019-03-13T06:00:15.605Z,5.25
2019-03-13T06:01:15.615Z,5.29
2019-03-13T06:02:15.585Z,5.25
2019-03-13T06:03:15.581Z,5.33
2019-03-13T06:04:15.568Z,5.24
2019-03-13T06:05:15.683Z,5.19
2019-03-13T06:06:15.545Z,5.18
2019-03-13T06:07:15.538Z,5.15
2019-03-13T06:08:18.390Z,5.16
2019-03-13T06:09:15.535Z,5.29
2019-03-13T06:10:15.500Z,5.37
2019-03-13T06:11:15.518Z,5.34
2019-03-13T06:12:15.475Z,5.32
2019-03-13T06:13:15.465Z,5.37
2019-03-13T06:14:15.454Z,5.27
2019-03-13T06:15:15.455Z,5.32
2019-03-13T06:16:15.439Z,5.19
2019-03-13T06:17:15.470Z,5.29
2019-03-13T06:18:15.425Z,5.32
2019-03-13T06:19:15.417Z,5.32
2019-03-13T06:20:15.403Z,5.25
2019-03-13T06:21:15.385Z,5.25
2019-03-13T06:22:15.368Z,5.30
2019-03-13T06:23:15.397Z,5.25
2019-03-13T06:24:15.346Z,5.14
2019-03-13T06:25:15.345Z,5.15
2019-03-13T06:26:15.327Z,5.21
2019-03-13T06:27:15.322Z,5.25
2019-03-13T06:28:15.306Z,5.33
2019-03-13T06:29:15.416Z,5.39
2019-03-13T06:30:15.289Z,5.39
2019-03-13T06:31:15.292Z,5.41
2019-03-13T06:32:15.279Z,5.48
2019-03-13T06:33:15.261Z,5.58
2019-03-13T06:34:15.266Z,5.59
2019-03-13T06:35:15.381Z,5.69
2019-03-13T06:36:15.226Z,5.66
2019-03-13T06:37:15.222Z,5.66
2019-03-13T06:38:15.209Z,5.67
2019-03-13T06:39:15.199Z,5.62
2019-03-13T06:40:15.176Z,5.66
2019-03-13T06:41:15.296Z,5.66
2019-03-13T06:42:15.160Z,5.69
2019-03-13T06:43:15.142Z,5.73
2019-03-13T06:44:15.149Z,5.76
2019-03-13T06:45:15.125Z,5.82
2019-03-13T06:46:15.118Z,5.85
2019-03-13T06:47:15.242Z,5.76
2019-03-13T06:48:15.097Z,5.84
2019-03-13T06:49:15.083Z,5.93
2019-03-13T06:50:15.076Z,5.90
2019-03-13T06:51:15.093Z,5.76
2019-03-13T06:52:15.057Z,5.95
2019-03-13T06:53:15.156Z,5.97
2019-03-13T06:54:15.022Z,5.98
2019-03-13T06:55:15.019Z,5.97
2019-03-13T06:56:15.000Z,5.97
2019-03-13T06:57:14.992Z,5.94
2019-03-13T06:58:14.979Z,5.94
2019-03-13T06:59:15.004Z,6.06
2019-03-13T07:00:14.969Z,6.03
2019-03-13T07:01:14.947Z,6.12
2019-03-13T07:02:14.935Z,6.09
2019-03-13T07:03:14.925Z,6.08
2019-03-13T07:04:14.919Z,6.13
2019-03-13T07:05:14.964Z,6.19
2019-03-13T07:06:14.917Z,6.15
2019-03-13T07:07:14.881Z,6.25
2019-03-13T07:08:14.869Z,6.28
2019-03-13T07:09:14.861Z,6.27
2019-03-13T07:10:14.853Z,6.30
2019-03-13T07:11:15.121Z,6.30
2019-03-13T07:12:14.849Z,6.27
2019-03-13T07:13:14.822Z,6.35
2019-03-13T07:14:14.830Z,6.35
2019-03-13T07:15:14.811Z,6.32
2019-03-13T07:16:14.788Z,6.42
2019-03-13T07:17:14.803Z,6.38
2019-03-13T07:18:14.784Z,6.37
2019-03-13T07:19:14.757Z,6.38
2019-03-13T07:20:14.739Z,6.37
2019-03-13T07:21:14.734Z,6.38
2019-03-13T07:22:14.719Z,6.32
2019-03-13T07:23:14.834Z,6.40
2019-03-13T07:24:14.715Z,6.49
2019-03-13T07:25:14.686Z,6.47
2019-03-13T07:26:14.677Z,6.37
2019-03-13T07:27:14.670Z,6.47
2019-03-13T07:28:14.653Z,6.49
2019-03-13T07:29:14.681Z,6.46
2019-03-13T07:30:14.648Z,6.47
2019-03-13T07:31:14.638Z,6.50
2019-03-13T07:32:14.610Z,6.57
2019-03-13T07:33:14.597Z,6.63
2019-03-13T07:34:14.587Z,6.67
2019-03-13T07:35:14.692Z,6.67
2019-03-13T07:36:14.567Z,6.61
2019-03-13T07:37:14.615Z,6.52
2019-03-13T07:38:15.901Z,6.49
2019-03-13T07:39:14.628Z,6.53
2019-03-13T07:40:14.526Z,6.46
2019-03-13T07:41:14.545Z,6.49
2019-03-13T07:42:14.502Z,6.40
2019-03-13T07:43:14.505Z,6.38
2019-03-13T07:44:14.530Z,6.35
2019-03-13T07:45:14.494Z,6.47
2019-03-13T07:46:14.462Z,6.46
2019-03-13T07:47:14.535Z,6.37
2019-03-13T07:48:14.446Z,6.31
2019-03-13T07:49:14.433Z,6.27
2019-03-13T07:50:14.545Z,6.34
2019-03-13T07:51:14.454Z,6.34
2019-03-13T07:52:14.409Z,6.18
2019-03-13T07:53:14.776Z,6.28
2019-03-13T07:54:14.380Z,6.21
2019-03-13T07:55:14.376Z,6.25
2019-03-13T07:56:14.356Z,6.32
2019-03-13T07:57:14.374Z,6.40
2019-03-13T07:58:14.345Z,6.32
2019-03-13T07:59:14.457Z,6.43
2019-03-13T08:00:14.312Z,6.37
2019-03-13T08:01:14.295Z,6.46
2019-03-13T08:02:14.286Z,6.53
2019-03-13T08:03:14.275Z,6.50
2019-03-13T08:04:14.260Z,6.61
2019-03-13T08:05:14.647Z,6.61
2019-03-13T08:06:14.254Z,6.71
2019-03-13T08:07:14.233Z,6.74
2019-03-13T08:08:14.225Z,6.91
2019-03-13T08:09:14.204Z,6.89
2019-03-13T08:10:14.198Z,6.96
2019-03-13T08:11:14.241Z,7.04
2019-03-13T08:12:14.176Z,7.07
2019-03-13T08:13:14.165Z,7.21
2019-03-13T08:14:14.161Z,7.21
2019-03-13T08:15:14.146Z,7.19
2019-03-13T08:16:14.129Z,7.16
2019-03-13T08:17:14.163Z,7.15
2019-03-13T08:18:14.149Z,7.08
2019-03-13T08:19:14.099Z,7.06
2019-03-13T08:20:14.099Z,6.92
2019-03-13T08:21:14.085Z,6.86
2019-03-13T08:22:14.122Z,6.89
2019-03-13T08:23:14.165Z,6.97
2019-03-13T08:24:14.045Z,7.03
2019-03-13T08:25:14.099Z,7.07
2019-03-13T08:26:14.047Z,7.26
2019-03-13T08:27:14.015Z,7.26
2019-03-13T08:28:14.008Z,7.40
2019-03-13T08:29:14.038Z,7.40
2019-03-13T08:30:13.995Z,7.40
2019-03-13T08:31:13.974Z,7.33
2019-03-13T08:32:14.007Z,7.29
2019-03-13T08:33:13.954Z,7.24
2019-03-13T08:34:13.942Z,7.33
2019-03-13T08:35:13.961Z,7.36
2019-03-13T08:36:13.946Z,7.37
2019-03-13T08:37:13.903Z,7.47
2019-03-13T08:38:13.925Z,7.57
2019-03-13T08:39:13.887Z,7.52
2019-03-13T08:40:13.881Z,7.52
2019-03-13T08:41:13.985Z,7.58
2019-03-13T08:42:13.856Z,7.66
2019-03-13T08:43:13.838Z,7.61
2019-03-13T08:44:13.842Z,7.61
2019-03-13T08:45:13.827Z,7.55
2019-03-13T08:46:13.820Z,7.58
2019-03-13T08:47:13.850Z,7.55
2019-03-13T08:48:13.796Z,7.58
2019-03-13T08:49:13.772Z,7.55
2019-03-13T08:50:13.774Z,7.47
2019-03-13T08:51:13.767Z,7.42
2019-03-13T08:52:13.741Z,7.43
2019-03-13T08:53:13.810Z,7.36
2019-03-13T08:54:13.719Z,7.44
2019-03-13T08:55:13.718Z,7.44
2019-03-13T08:56:13.708Z,7.28
2019-03-13T08:57:13.726Z,7.37
2019-03-13T08:58:13.676Z,7.58
2019-03-13T08:59:13.766Z,7.60
2019-03-13T09:00:13.668Z,7.64
2019-03-13T09:01:13.662Z,7.73
2019-03-13T09:02:13.637Z,7.77
2019-03-13T09:03:13.662Z,7.74
2019-03-13T09:04:13.651Z,7.86
2019-03-13T09:05:13.792Z,7.84
2019-03-13T09:06:13.934Z,7.78
2019-03-13T09:07:13.612Z,7.86
2019-03-13T09:08:13.574Z,7.91
2019-03-13T09:09:13.558Z,7.91
2019-03-13T09:10:13.555Z,8.01
2019-03-13T09:11:13.594Z,8.19
2019-03-13T09:12:13.526Z,8.17
2019-03-13T09:13:13.532Z,8.17
2019-03-13T09:14:13.556Z,8.06
2019-03-13T09:15:13.552Z,7.94
2019-03-13T09:16:13.552Z,7.87
2019-03-13T09:17:13.541Z,7.74
2019-03-13T09:18:13.466Z,7.77
2019-03-13T09:19:13.474Z,7.57
2019-03-13T09:20:13.448Z,7.36
2019-03-13T09:21:13.430Z,7.36
2019-03-13T09:22:13.422Z,7.34
2019-03-13T09:23:13.461Z,7.33
2019-03-13T09:24:13.405Z,7.31
2019-03-13T09:25:13.397Z,7.29
2019-03-13T09:26:13.391Z,7.25
2019-03-13T09:27:13.372Z,7.33
2019-03-13T09:28:13.368Z,7.34
2019-03-13T09:29:13.421Z,7.36
2019-03-13T09:30:13.378Z,7.37
2019-03-13T09:31:13.352Z,7.25
2019-03-13T09:32:13.314Z,7.21
2019-03-13T09:33:13.303Z,7.28
2019-03-13T09:34:13.317Z,7.31
2019-03-13T09:35:13.319Z,7.25
2019-03-13T09:36:13.267Z,7.24
2019-03-13T09:37:13.267Z,7.11
2019-03-13T09:38:13.284Z,7.13
2019-03-13T09:39:13.338Z,7.10
2019-03-13T09:40:13.226Z,7.10
2019-03-13T09:41:13.270Z,7.15
2019-03-13T09:42:13.286Z,7.26
2019-03-13T09:43:13.196Z,7.22
2019-03-13T09:44:13.195Z,7.24
2019-03-13T09:45:13.167Z,7.33
2019-03-13T09:46:13.155Z,7.36
2019-03-13T09:47:13.198Z,7.29
2019-03-13T09:48:13.150Z,7.33
2019-03-13T09:49:14.523Z,7.36
2019-03-13T09:50:13.125Z,7.43
2019-03-13T09:51:13.100Z,7.44
2019-03-13T09:52:13.107Z,7.40
2019-03-13T09:53:13.112Z,7.47
2019-03-13T09:54:13.090Z,7.47
2019-03-13T09:55:13.065Z,7.31
2019-03-13T09:56:13.081Z,7.31
2019-03-13T09:57:13.068Z,7.39
2019-03-13T09:58:13.083Z,7.22
2019-03-13T09:59:13.105Z,7.29
2019-03-13T10:00:13.010Z,7.33
2019-03-13T10:01:13.054Z,7.31
2019-03-13T10:02:13.001Z,7.39
2019-03-13T10:03:13.019Z,7.40
2019-03-13T10:04:12.981Z,7.52
2019-03-13T10:05:13.031Z,7.58
2019-03-13T10:06:12.950Z,7.61
2019-03-13T10:07:12.993Z,7.76
2019-03-13T10:08:12.941Z,7.77
2019-03-13T10:09:12.909Z,7.73
2019-03-13T10:10:12.907Z,7.74
2019-03-13T10:11:12.945Z,7.74
2019-03-13T10:12:12.933Z,7.76
2019-03-13T10:13:12.865Z,7.68
2019-03-13T10:14:12.856Z,7.69
2019-03-13T10:15:12.846Z,7.77
2019-03-13T10:16:12.834Z,7.78
2019-03-13T10:17:12.862Z,7.64
2019-03-13T10:18:12.898Z,7.76
2019-03-13T10:19:12.801Z,7.73
2019-03-13T10:20:12.792Z,7.99
2019-03-13T10:21:12.781Z,8.02
2019-03-13T10:22:12.800Z,8.13
2019-03-13T10:23:12.810Z,7.98
2019-03-13T10:24:12.747Z,7.98
2019-03-13T10:25:12.762Z,7.99
2019-03-13T10:26:12.740Z,7.95
2019-03-13T10:27:12.724Z,7.83
2019-03-13T10:28:12.720Z,7.73
2019-03-13T10:29:12.719Z,7.73
2019-03-13T10:30:12.684Z,7.71
2019-03-13T10:31:12.684Z,7.60
2019-03-13T10:32:12.660Z,7.74
2019-03-13T10:33:12.646Z,7.76
2019-03-13T10:34:12.670Z,7.76
2019-03-13T10:35:12.677Z,7.77
2019-03-13T10:36:12.622Z,7.80
2019-03-13T10:37:12.625Z,7.96
2019-03-13T10:38:14.044Z,7.94
2019-03-13T10:39:12.585Z,7.86
2019-03-13T10:40:12.596Z,7.96
2019-03-13T10:41:12.601Z,8.02
2019-03-13T10:42:12.552Z,7.94
2019-03-13T10:43:12.546Z,7.86
2019-03-13T10:44:12.584Z,7.95
2019-03-13T10:45:12.523Z,8.04
2019-03-13T10:46:12.510Z,8.14
2019-03-13T10:47:12.540Z,8.32
2019-03-13T10:48:12.492Z,8.32
2019-03-13T10:49:12.476Z,8.42
2019-03-13T10:50:12.478Z,8.56
2019-03-13T10:51:12.466Z,8.56
2019-03-13T10:52:12.446Z,8.53
2019-03-13T10:53:12.514Z,8.52
2019-03-13T10:54:12.449Z,8.47
2019-03-13T10:55:12.415Z,8.50
2019-03-13T10:56:12.408Z,8.74
2019-03-13T10:57:12.413Z,8.93
2019-03-13T10:58:12.396Z,9.09
2019-03-13T10:59:12.426Z,9.03
2019-03-13T11:00:12.370Z,9.12
2019-03-13T11:01:12.367Z,9.18
2019-03-13T11:02:12.344Z,9.48
2019-03-13T11:03:12.343Z,9.40
2019-03-13T11:04:12.312Z,9.16
2019-03-13T11:05:12.388Z,9.04
2019-03-13T11:06:12.296Z,8.90
2019-03-13T11:07:12.283Z,8.72
2019-03-13T11:08:12.273Z,8.52
2019-03-13T11:09:12.284Z,8.32
2019-03-13T11:10:12.246Z,8.14
2019-03-13T11:11:12.289Z,8.13
2019-03-13T11:12:12.238Z,8.24
2019-03-13T11:13:12.242Z,8.31
2019-03-13T11:14:15.936Z,8.20
2019-03-13T11:15:12.191Z,8.16
2019-03-13T11:16:12.208Z,8.09
2019-03-13T11:17:12.217Z,8.04
2019-03-13T11:18:12.181Z,7.94
2019-03-13T11:19:12.196Z,7.98
2019-03-13T11:20:12.146Z,7.98
2019-03-13T11:21:12.126Z,7.96
2019-03-13T11:22:12.120Z,8.02
2019-03-13T11:23:12.159Z,7.96
2019-03-13T11:24:12.150Z,8.06
2019-03-13T11:25:12.089Z,7.92
2019-03-13T11:26:12.081Z,7.94
2019-03-13T11:27:12.070Z,7.91
2019-03-13T11:28:12.051Z,7.98
2019-03-13T11:29:12.095Z,8.01
2019-03-13T11:30:12.032Z,8.02
2019-03-13T11:31:12.056Z,8.02
2019-03-13T11:32:12.008Z,7.86
2019-03-13T11:33:12.002Z,8.02
2019-03-13T11:34:12.003Z,8.02
2019-03-13T11:35:12.032Z,7.95
2019-03-13T11:36:11.978Z,7.92
2019-03-13T11:37:11.985Z,7.98
2019-03-13T11:38:11.980Z,8.04
2019-03-13T11:39:11.946Z,8.17
2019-03-13T11:40:11.993Z,8.20
2019-03-13T11:41:11.971Z,8.50
2019-03-13T11:42:11.919Z,8.62
2019-03-13T11:43:11.896Z,8.55
2019-03-13T11:44:11.891Z,8.63
2019-03-13T11:45:11.902Z,8.67
2019-03-13T11:46:11.865Z,8.80
2019-03-13T11:47:11.897Z,8.80
2019-03-13T11:48:11.850Z,8.90
2019-03-13T11:49:11.830Z,8.98
2019-03-13T11:50:11.846Z,9.06
2019-03-13T11:51:11.880Z,9.18
2019-03-13T11:52:11.796Z,9.01
2019-03-13T11:53:11.841Z,9.14
2019-03-13T11:54:11.788Z,9.24
2019-03-13T11:55:11.778Z,9.16
2019-03-13T11:56:11.759Z,9.09
2019-03-13T11:57:11.741Z,8.80
2019-03-13T11:58:11.832Z,8.68
2019-03-13T11:59:11.780Z,8.49
2019-03-13T12:00:11.730Z,8.46
2019-03-13T12:01:11.713Z,8.50
2019-03-13T12:02:11.691Z,8.56
2019-03-13T12:03:11.670Z,8.55
2019-03-13T12:04:11.675Z,8.59
2019-03-13T12:05:11.706Z,8.89
2019-03-13T12:06:11.648Z,8.71
2019-03-13T12:07:11.640Z,8.71
2019-03-13T12:08:11.623Z,8.83
2019-03-13T12:09:11.703Z,8.85
2019-03-13T12:10:11.597Z,8.80
2019-03-13T12:11:11.644Z,8.85
2019-03-13T12:12:11.576Z,8.88
2019-03-13T12:13:11.568Z,8.92
2019-03-13T12:14:11.916Z,8.95
2019-03-13T12:15:11.539Z,8.99
2019-03-13T12:16:11.543Z,9.14
2019-03-13T12:17:11.590Z,9.03
2019-03-13T12:18:11.525Z,9.11
2019-03-13T12:19:11.492Z,9.04
2019-03-13T12:20:11.480Z,8.98
2019-03-13T12:21:11.482Z,8.95
2019-03-13T12:22:11.491Z,8.95
2019-03-13T12:23:11.512Z,8.89
2019-03-13T12:24:11.447Z,8.89
2019-03-13T12:25:11.436Z,8.81
2019-03-13T12:26:11.415Z,8.75
2019-03-13T12:27:11.406Z,8.68
2019-03-13T12:28:11.419Z,8.80
2019-03-13T12:29:11.416Z,8.93
2019-03-13T12:30:11.372Z,8.96
2019-03-13T12:31:13.837Z,8.89
2019-03-13T12:32:11.403Z,8.88
2019-03-13T12:33:11.362Z,8.88
2019-03-13T12:34:11.345Z,8.92
2019-03-13T12:35:11.386Z,8.98
2019-03-13T12:36:11.344Z,8.96
2019-03-13T12:37:11.307Z,8.98
2019-03-13T12:38:11.319Z,8.88
2019-03-13T12:39:11.288Z,8.89
2019-03-13T12:40:11.280Z,8.70
2019-03-13T12:41:11.357Z,8.93
2019-03-13T12:42:11.248Z,8.88
2019-03-13T12:43:11.247Z,8.98
2019-03-13T12:44:11.260Z,9.14
2019-03-13T12:45:11.232Z,9.42
2019-03-13T12:46:11.218Z,9.67
2019-03-13T12:47:11.269Z,9.85
2019-03-13T12:48:16.517Z,10.08
2019-03-13T12:49:12.214Z,10.36
2019-03-13T12:50:11.154Z,10.80
2019-03-13T12:51:11.167Z,10.83
2019-03-13T12:52:11.134Z,10.43
2019-03-13T12:53:11.168Z,10.01
2019-03-13T12:54:11.113Z,9.90
2019-03-13T12:55:11.106Z,9.85
2019-03-13T12:56:11.112Z,9.93
2019-03-13T12:57:11.081Z,10.23
2019-03-13T12:58:11.075Z,10.21
2019-03-13T12:59:11.118Z,10.31
2019-03-13T13:00:11.046Z,10.12
2019-03-13T13:01:11.037Z,10.01
2019-03-13T13:02:11.027Z,9.75
2019-03-13T13:03:11.015Z,9.45
2019-03-13T13:04:11.002Z,9.32
2019-03-13T13:05:11.035Z,9.09
2019-03-13T13:06:11.008Z,8.90
2019-03-13T13:07:10.985Z,8.83
2019-03-13T13:08:10.975Z,8.88
2019-03-13T13:09:10.971Z,8.85
2019-03-13T13:10:11.006Z,9.23
2019-03-13T13:11:10.957Z,9.72
2019-03-13T13:12:10.915Z,10.01
2019-03-13T13:13:10.921Z,9.87
2019-03-13T13:14:10.892Z,9.42
2019-03-13T13:15:10.888Z,8.95
2019-03-13T13:16:10.893Z,8.71
2019-03-13T13:17:10.910Z,8.53
2019-03-13T13:18:10.879Z,8.47